Погода Цнянкана неделю

Минская область, Белоруссия

26 мая-01 июня
  • 26мая
    Сегодня
    +11°
    +26°
    Облачно с прояснениями
    ВремяПогодаТемператураВлажностьДавлениеВетер, м/сВероятность осадков
    00:00Ясно и безоблачно+16°C58 %751 мм2.9 м/с2 %
    03:00Ясно и безоблачно+13°C63 %751 мм2.2 м/с2 %
    06:00Ясно и безоблачно+12°C71 %751 мм1.9 м/с2 %
    09:00Ясно и безоблачно+20°C53 %752 мм1.5 м/с2 %
    12:00Небольшая облачность+24°C34 %752 мм2.7 м/с2 %
    15:00Облачно с прояснениями+25°C32 %752 мм2.5 м/с2 %
    18:00Ясно и безоблачно+25°C32 %751 мм2.7 м/с2 %
    21:00Ясно и безоблачно+20°C52 %751 мм2.1 м/с2 %
  • 27мая
    Понедельник
    +12°
    +27°
    Небольшая облачность
    ВремяПогодаТемператураВлажностьДавлениеВетер, м/сВероятность осадков
    00:00Ясно и безоблачно+16°C54 %751 мм1.2 м/с2 %
    03:00Ясно и безоблачно+13°C80 %751 мм1.7 м/с2 %
    06:00Небольшая облачность+13°C76 %751 мм1.5 м/с2 %
    09:00Небольшая облачность+22°C42 %752 мм1.9 м/с2 %
    12:00Небольшая облачность+25°C36 %751 мм2.8 м/с2 %
    15:00Небольшая облачность+26°C35 %751 мм3.3 м/с2 %
    18:00Ясно и безоблачно+26°C36 %750 мм2.6 м/с3 %
    21:00Ясно и безоблачно+21°C58 %749 мм2.2 м/с2 %
  • 28мая
    Вторник
    +13°
    +26°
    Практически безоблачно
    ВремяПогодаТемператураВлажностьДавлениеВетер, м/сВероятность осадков
    00:00Ясно и безоблачно+17°C72 %749 мм2.1 м/с2 %
    03:00Ясно и безоблачно+14°C85 %749 мм2.4 м/с2 %
    06:00Ясно и безоблачно+14°C84 %748 мм1.7 м/с2 %
    09:00Ясно и безоблачно+22°C58 %749 мм2.6 м/с2 %
    12:00Практически безоблачно+25°C43 %748 мм4.2 м/с3 %
    15:00Практически безоблачно+25°C30 %747 мм3.7 м/с14 %
    18:00Облачно с прояснениями+26°C32 %746 мм3.5 м/с24 %
    21:00Ясно и безоблачно+21°C48 %746 мм1.9 м/с5 %
  • 29мая
    Среда
    +13°
    +27°
    Практически безоблачно
    ВремяПогодаТемператураВлажностьДавлениеВетер, м/сВероятность осадков
    00:00Ясно и безоблачно+17°C73 %746 мм3.7 м/с2 %
    03:00Ясно и безоблачно+15°C75 %745 мм3.2 м/с2 %
    06:00Ясно и безоблачно+14°C76 %744 мм2.3 м/с2 %
    09:00Ясно и безоблачно+21°C54 %745 мм2.0 м/с2 %
    12:00Практически безоблачно+26°C26 %745 мм4.5 м/с7 %
    15:00Практически безоблачно+26°C26 %744 мм4.2 м/с14 %
    18:00Ясно и безоблачно+26°C28 %743 мм4.0 м/с7 %
    21:00Облачно с прояснениями+21°C48 %742 мм2.3 м/с2 %
  • 30мая
    Четверг
    +13°
    +26°
    Небольшая облачность
    ВремяПогодаТемператураВлажностьДавлениеВетер, м/сВероятность осадков
    00:00Практически безоблачно+16°C62 %742 мм2.1 м/с2 %
    03:00Облачно с прояснениями+14°C62 %741 мм2.2 м/с2 %
    06:00Облачно с прояснениями+14°C63 %741 мм2.5 м/с2 %
    09:00Облачно с прояснениями+20°C52 %741 мм3.4 м/с2 %
    12:00Облачно с прояснениями+24°C34 %741 мм4.7 м/с13 %
    15:00Небольшая облачность+26°C31 %741 мм5.7 м/с42 %
    18:00Практически безоблачно+25°C40 %740 мм6.1 м/с46 %
    21:00Ясно и безоблачно+21°C63 %740 мм2.8 м/с13 %
Мы используем cookies
Соглашаюсь